sensor_id;sensor_type;location;lat;lon;timestamp;P1;durP1;ratioP1;P2;durP2;ratioP2
52946;SDS011;45776;40.400;17.260;2022-08-23T00:01:29;2.45;;;0.90;;
52946;SDS011;45776;40.400;17.260;2022-08-23T00:03:58;2.38;;;1.17;;
52946;SDS011;45776;40.400;17.260;2022-08-23T00:06:31;2.88;;;1.00;;
52946;SDS011;45776;40.400;17.260;2022-08-23T00:08:57;4.55;;;1.30;;
52946;SDS011;45776;40.400;17.260;2022-08-23T00:11:37;2.08;;;1.02;;
52946;SDS011;45776;40.400;17.260;2022-08-23T00:14:10;1.85;;;1.00;;
52946;SDS011;45776;40.400;17.260;2022-08-23T00:16:36;3.72;;;1.08;;
52946;SDS011;45776;40.400;17.260;2022-08-23T00:19:03;5.15;;;1.25;;
52946;SDS011;45776;40.400;17.260;2022-08-23T00:21:30;2.50;;;1.25;;
52946;SDS011;45776;40.400;17.260;2022-08-23T00:23:55;4.32;;;1.20;;
52946;SDS011;45776;40.400;17.260;2022-08-23T00:26:21;3.60;;;1.20;;
52946;SDS011;45776;40.400;17.260;2022-08-23T00:28:47;2.33;;;1.13;;
52946;SDS011;45776;40.400;17.260;2022-08-23T00:31:14;1.25;;;0.90;;
52946;SDS011;45776;40.400;17.260;2022-08-23T00:33:40;1.67;;;1.20;;
52946;SDS011;45776;40.400;17.260;2022-08-23T00:36:05;1.38;;;1.17;;
52946;SDS011;45776;40.400;17.260;2022-08-23T00:38:31;2.95;;;1.10;;
52946;SDS011;45776;40.400;17.260;2022-08-23T00:40:56;2.55;;;1.30;;
52946;SDS011;45776;40.400;17.260;2022-08-23T00:43:55;3.38;;;1.35;;
52946;SDS011;45776;40.400;17.260;2022-08-23T00:49:38;3.45;;;1.35;;
52946;SDS011;45776;40.400;17.260;2022-08-23T00:52:09;1.85;;;1.20;;
52946;SDS011;45776;40.400;17.260;2022-08-23T00:54:38;5.45;;;1.48;;
52946;SDS011;45776;40.400;17.260;2022-08-23T00:57:11;2.42;;;1.40;;
52946;SDS011;45776;40.400;17.260;2022-08-23T00:59:38;2.20;;;1.50;;
52946;SDS011;45776;40.400;17.260;2022-08-23T01:02:06;2.63;;;1.20;;
52946;SDS011;45776;40.400;17.260;2022-08-23T01:04:37;4.10;;;1.50;;
52946;SDS011;45776;40.400;17.260;2022-08-23T01:07:49;1.50;;;1.00;;
52946;SDS011;45776;40.400;17.260;2022-08-23T01:10:15;2.00;;;1.20;;
52946;SDS011;45776;40.400;17.260;2022-08-23T01:12:52;2.38;;;1.30;;
52946;SDS011;45776;40.400;17.260;2022-08-23T01:15:26;1.77;;;1.33;;
52946;SDS011;45776;40.400;17.260;2022-08-23T01:17:59;3.45;;;1.48;;
52946;SDS011;45776;40.400;17.260;2022-08-23T01:20:29;1.63;;;1.13;;
52946;SDS011;45776;40.400;17.260;2022-08-23T01:26:03;2.58;;;1.30;;
52946;SDS011;45776;40.400;17.260;2022-08-23T01:28:29;3.15;;;1.30;;
52946;SDS011;45776;40.400;17.260;2022-08-23T01:30:55;3.75;;;1.30;;
52946;SDS011;45776;40.400;17.260;2022-08-23T01:33:21;2.50;;;1.40;;
52946;SDS011;45776;40.400;17.260;2022-08-23T01:35:48;1.95;;;1.30;;
52946;SDS011;45776;40.400;17.260;2022-08-23T01:38:17;5.70;;;1.55;;
52946;SDS011;45776;40.400;17.260;2022-08-23T01:40:43;2.85;;;1.45;;
52946;SDS011;45776;40.400;17.260;2022-08-23T01:43:09;1.77;;;1.13;;
52946;SDS011;45776;40.400;17.260;2022-08-23T01:45:37;2.42;;;1.48;;
52946;SDS011;45776;40.400;17.260;2022-08-23T01:48:04;2.85;;;1.35;;
52946;SDS011;45776;40.400;17.260;2022-08-23T01:50:30;4.05;;;1.40;;
52946;SDS011;45776;40.400;17.260;2022-08-23T01:52:56;3.22;;;1.40;;
52946;SDS011;45776;40.400;17.260;2022-08-23T01:55:22;2.58;;;1.58;;
52946;SDS011;45776;40.400;17.260;2022-08-23T01:57:53;3.30;;;1.45;;
52946;SDS011;45776;40.400;17.260;2022-08-23T02:00:22;2.33;;;1.17;;
52946;SDS011;45776;40.400;17.260;2022-08-23T02:02:51;2.63;;;1.20;;
52946;SDS011;45776;40.400;17.260;2022-08-23T02:05:17;1.40;;;1.10;;
52946;SDS011;45776;40.400;17.260;2022-08-23T02:07:43;1.52;;;1.17;;
52946;SDS011;45776;40.400;17.260;2022-08-23T02:10:09;1.67;;;1.25;;
52946;SDS011;45776;40.400;17.260;2022-08-23T02:12:35;2.42;;;1.25;;
52946;SDS011;45776;40.400;17.260;2022-08-23T02:15:01;1.75;;;1.30;;
52946;SDS011;45776;40.400;17.260;2022-08-23T02:17:28;2.78;;;1.10;;
52946;SDS011;45776;40.400;17.260;2022-08-23T02:19:53;4.13;;;1.60;;
52946;SDS011;45776;40.400;17.260;2022-08-23T02:22:19;2.05;;;1.23;;
52946;SDS011;45776;40.400;17.260;2022-08-23T02:24:45;2.63;;;1.10;;
52946;SDS011;45776;40.400;17.260;2022-08-23T02:27:12;1.73;;;1.30;;
52946;SDS011;45776;40.400;17.260;2022-08-23T02:29:40;3.10;;;1.30;;
52946;SDS011;45776;40.400;17.260;2022-08-23T02:32:07;4.40;;;1.50;;
52946;SDS011;45776;40.400;17.260;2022-08-23T02:34:33;1.85;;;1.30;;
52946;SDS011;45776;40.400;17.260;2022-08-23T02:36:59;1.77;;;1.10;;
52946;SDS011;45776;40.400;17.260;2022-08-23T02:39:25;2.00;;;1.08;;
52946;SDS011;45776;40.400;17.260;2022-08-23T02:41:51;2.47;;;1.20;;
52946;SDS011;45776;40.400;17.260;2022-08-23T02:44:17;3.15;;;1.48;;
52946;SDS011;45776;40.400;17.260;2022-08-23T02:46:43;1.80;;;1.48;;
52946;SDS011;45776;40.400;17.260;2022-08-23T02:49:10;2.88;;;1.20;;
52946;SDS011;45776;40.400;17.260;2022-08-23T02:51:36;2.80;;;1.30;;
52946;SDS011;45776;40.400;17.260;2022-08-23T02:54:02;1.77;;;1.35;;
52946;SDS011;45776;40.400;17.260;2022-08-23T02:56:28;2.13;;;1.20;;
52946;SDS011;45776;40.400;17.260;2022-08-23T02:58:54;1.90;;;1.30;;
52946;SDS011;45776;40.400;17.260;2022-08-23T03:01:24;1.60;;;1.38;;
52946;SDS011;45776;40.400;17.260;2022-08-23T03:03:52;1.95;;;1.30;;
52946;SDS011;45776;40.400;17.260;2022-08-23T03:06:19;2.60;;;1.58;;
52946;SDS011;45776;40.400;17.260;2022-08-23T03:08:45;1.88;;;1.42;;
52946;SDS011;45776;40.400;17.260;2022-08-23T03:11:12;3.30;;;1.50;;
52946;SDS011;45776;40.400;17.260;2022-08-23T03:13:42;2.58;;;1.40;;
52946;SDS011;45776;40.400;17.260;2022-08-23T03:16:10;2.47;;;1.42;;
52946;SDS011;45776;40.400;17.260;2022-08-23T03:18:37;1.83;;;1.40;;
52946;SDS011;45776;40.400;17.260;2022-08-23T03:21:03;2.30;;;1.38;;
52946;SDS011;45776;40.400;17.260;2022-08-23T03:23:30;1.92;;;1.30;;
52946;SDS011;45776;40.400;17.260;2022-08-23T03:25:57;6.13;;;1.65;;
52946;SDS011;45776;40.400;17.260;2022-08-23T03:28:24;2.45;;;1.20;;
52946;SDS011;45776;40.400;17.260;2022-08-23T03:30:50;2.17;;;1.45;;
52946;SDS011;45776;40.400;17.260;2022-08-23T03:33:16;1.48;;;1.30;;
52946;SDS011;45776;40.400;17.260;2022-08-23T03:35:42;1.48;;;1.23;;
52946;SDS011;45776;40.400;17.260;2022-08-23T03:38:08;3.00;;;1.63;;
52946;SDS011;45776;40.400;17.260;2022-08-23T03:40:34;2.53;;;1.70;;
52946;SDS011;45776;40.400;17.260;2022-08-23T03:42:59;2.85;;;1.70;;
52946;SDS011;45776;40.400;17.260;2022-08-23T03:45:25;4.53;;;1.60;;
52946;SDS011;45776;40.400;17.260;2022-08-23T03:47:51;2.30;;;1.40;;
52946;SDS011;45776;40.400;17.260;2022-08-23T03:50:17;3.42;;;1.58;;
52946;SDS011;45776;40.400;17.260;2022-08-23T03:52:42;2.55;;;1.23;;
52946;SDS011;45776;40.400;17.260;2022-08-23T03:55:08;3.45;;;1.30;;
52946;SDS011;45776;40.400;17.260;2022-08-23T03:57:33;3.78;;;1.30;;
52946;SDS011;45776;40.400;17.260;2022-08-23T03:59:59;1.73;;;1.23;;
52946;SDS011;45776;40.400;17.260;2022-08-23T04:02:25;2.65;;;1.67;;
52946;SDS011;45776;40.400;17.260;2022-08-23T04:04:51;2.20;;;1.50;;
52946;SDS011;45776;40.400;17.260;2022-08-23T04:07:18;4.05;;;1.60;;
52946;SDS011;45776;40.400;17.260;2022-08-23T04:09:46;2.10;;;1.58;;
52946;SDS011;45776;40.400;17.260;2022-08-23T04:12:12;2.58;;;1.55;;
52946;SDS011;45776;40.400;17.260;2022-08-23T04:14:38;3.67;;;1.55;;
52946;SDS011;45776;40.400;17.260;2022-08-23T04:17:03;3.15;;;1.60;;
52946;SDS011;45776;40.400;17.260;2022-08-23T04:19:29;2.92;;;1.45;;
52946;SDS011;45776;40.400;17.260;2022-08-23T04:21:55;2.83;;;1.52;;
52946;SDS011;45776;40.400;17.260;2022-08-23T04:24:21;2.38;;;1.40;;
52946;SDS011;45776;40.400;17.260;2022-08-23T04:26:46;3.08;;;1.75;;
52946;SDS011;45776;40.400;17.260;2022-08-23T04:29:12;3.78;;;1.80;;
52946;SDS011;45776;40.400;17.260;2022-08-23T04:31:42;3.53;;;1.40;;
52946;SDS011;45776;40.400;17.260;2022-08-23T04:34:08;2.50;;;1.67;;
52946;SDS011;45776;40.400;17.260;2022-08-23T04:36:38;3.90;;;1.75;;
52946;SDS011;45776;40.400;17.260;2022-08-23T04:39:05;2.67;;;1.77;;
52946;SDS011;45776;40.400;17.260;2022-08-23T04:41:31;2.20;;;1.42;;
52946;SDS011;45776;40.400;17.260;2022-08-23T04:44:15;2.40;;;1.50;;
52946;SDS011;45776;40.400;17.260;2022-08-23T04:46:41;3.05;;;1.58;;
52946;SDS011;45776;40.400;17.260;2022-08-23T04:49:08;2.90;;;1.70;;
52946;SDS011;45776;40.400;17.260;2022-08-23T04:51:34;4.32;;;1.60;;
52946;SDS011;45776;40.400;17.260;2022-08-23T04:54:00;2.03;;;1.33;;
52946;SDS011;45776;40.400;17.260;2022-08-23T04:56:26;4.63;;;1.30;;
52946;SDS011;45776;40.400;17.260;2022-08-23T04:58:52;2.22;;;1.58;;
52946;SDS011;45776;40.400;17.260;2022-08-23T05:01:18;2.63;;;1.90;;
52946;SDS011;45776;40.400;17.260;2022-08-23T05:03:44;5.35;;;1.50;;
52946;SDS011;45776;40.400;17.260;2022-08-23T05:06:10;6.32;;;1.63;;
52946;SDS011;45776;40.400;17.260;2022-08-23T05:08:35;1.67;;;1.58;;
52946;SDS011;45776;40.400;17.260;2022-08-23T05:11:02;1.40;;;1.30;;
52946;SDS011;45776;40.400;17.260;2022-08-23T05:13:30;1.80;;;1.40;;
52946;SDS011;45776;40.400;17.260;2022-08-23T05:15:55;2.28;;;1.30;;
52946;SDS011;45776;40.400;17.260;2022-08-23T05:18:21;3.00;;;1.40;;
52946;SDS011;45776;40.400;17.260;2022-08-23T05:20:47;2.33;;;1.40;;
52946;SDS011;45776;40.400;17.260;2022-08-23T05:23:13;2.58;;;1.50;;
52946;SDS011;45776;40.400;17.260;2022-08-23T05:25:39;1.58;;;1.20;;
52946;SDS011;45776;40.400;17.260;2022-08-23T05:28:17;3.20;;;1.30;;
52946;SDS011;45776;40.400;17.260;2022-08-23T05:33:18;2.28;;;1.50;;
52946;SDS011;45776;40.400;17.260;2022-08-23T05:35:43;1.70;;;1.42;;
52946;SDS011;45776;40.400;17.260;2022-08-23T05:38:08;2.67;;;1.30;;
52946;SDS011;45776;40.400;17.260;2022-08-23T05:40:34;5.00;;;1.40;;
52946;SDS011;45776;40.400;17.260;2022-08-23T05:42:59;4.40;;;1.80;;
52946;SDS011;45776;40.400;17.260;2022-08-23T05:45:25;4.20;;;1.48;;
52946;SDS011;45776;40.400;17.260;2022-08-23T05:47:50;4.18;;;1.60;;
52946;SDS011;45776;40.400;17.260;2022-08-23T05:50:16;2.90;;;1.63;;
52946;SDS011;45776;40.400;17.260;2022-08-23T05:52:41;1.90;;;1.30;;
52946;SDS011;45776;40.400;17.260;2022-08-23T05:55:07;3.10;;;1.50;;
52946;SDS011;45776;40.400;17.260;2022-08-23T05:57:33;2.38;;;1.80;;
52946;SDS011;45776;40.400;17.260;2022-08-23T06:00:02;3.45;;;1.73;;
52946;SDS011;45776;40.400;17.260;2022-08-23T06:02:33;2.15;;;1.70;;
52946;SDS011;45776;40.400;17.260;2022-08-23T06:04:59;5.20;;;1.30;;
52946;SDS011;45776;40.400;17.260;2022-08-23T06:07:24;2.58;;;1.80;;
52946;SDS011;45776;40.400;17.260;2022-08-23T06:09:50;3.35;;;1.70;;
52946;SDS011;45776;40.400;17.260;2022-08-23T06:12:16;2.45;;;1.58;;
52946;SDS011;45776;40.400;17.260;2022-08-23T06:14:42;2.08;;;1.52;;
52946;SDS011;45776;40.400;17.260;2022-08-23T06:17:08;2.25;;;1.60;;
52946;SDS011;45776;40.400;17.260;2022-08-23T06:19:33;2.53;;;1.50;;
52946;SDS011;45776;40.400;17.260;2022-08-23T06:21:59;2.33;;;1.60;;
52946;SDS011;45776;40.400;17.260;2022-08-23T06:24:24;3.08;;;1.70;;
52946;SDS011;45776;40.400;17.260;2022-08-23T06:26:50;2.58;;;1.80;;
52946;SDS011;45776;40.400;17.260;2022-08-23T06:29:17;4.75;;;2.05;;
52946;SDS011;45776;40.400;17.260;2022-08-23T06:31:44;2.50;;;1.60;;
52946;SDS011;45776;40.400;17.260;2022-08-23T06:34:24;3.20;;;1.73;;
52946;SDS011;45776;40.400;17.260;2022-08-23T06:36:55;2.58;;;1.70;;
52946;SDS011;45776;40.400;17.260;2022-08-23T06:39:23;1.92;;;1.60;;
52946;SDS011;45776;40.400;17.260;2022-08-23T06:41:49;3.97;;;1.73;;
52946;SDS011;45776;40.400;17.260;2022-08-23T06:44:16;5.00;;;1.75;;
52946;SDS011;45776;40.400;17.260;2022-08-23T06:46:43;4.55;;;1.98;;
52946;SDS011;45776;40.400;17.260;2022-08-23T06:49:11;4.07;;;1.80;;
52946;SDS011;45776;40.400;17.260;2022-08-23T06:51:42;6.22;;;1.90;;
52946;SDS011;45776;40.400;17.260;2022-08-23T06:54:10;4.85;;;2.03;;
52946;SDS011;45776;40.400;17.260;2022-08-23T06:56:39;2.47;;;1.40;;
52946;SDS011;45776;40.400;17.260;2022-08-23T06:59:05;3.15;;;2.00;;
52946;SDS011;45776;40.400;17.260;2022-08-23T07:04:06;8.55;;;2.47;;
52946;SDS011;45776;40.400;17.260;2022-08-23T07:06:33;5.78;;;2.17;;
52946;SDS011;45776;40.400;17.260;2022-08-23T07:09:00;7.82;;;2.38;;
52946;SDS011;45776;40.400;17.260;2022-08-23T07:11:26;4.45;;;2.00;;
52946;SDS011;45776;40.400;17.260;2022-08-23T07:13:55;4.97;;;1.98;;
52946;SDS011;45776;40.400;17.260;2022-08-23T07:16:24;5.10;;;2.20;;
52946;SDS011;45776;40.400;17.260;2022-08-23T07:18:50;6.38;;;2.08;;
52946;SDS011;45776;40.400;17.260;2022-08-23T07:21:17;12.00;;;2.55;;
52946;SDS011;45776;40.400;17.260;2022-08-23T07:23:44;4.55;;;2.03;;
52946;SDS011;45776;40.400;17.260;2022-08-23T07:26:11;2.78;;;1.92;;
52946;SDS011;45776;40.400;17.260;2022-08-23T07:28:39;3.92;;;2.38;;
52946;SDS011;45776;40.400;17.260;2022-08-23T07:31:13;5.40;;;2.30;;
52946;SDS011;45776;40.400;17.260;2022-08-23T07:33:41;9.88;;;2.33;;
52946;SDS011;45776;40.400;17.260;2022-08-23T07:36:08;4.93;;;1.98;;
52946;SDS011;45776;40.400;17.260;2022-08-23T07:38:33;3.55;;;2.05;;
52946;SDS011;45776;40.400;17.260;2022-08-23T07:41:00;4.32;;;2.15;;
52946;SDS011;45776;40.400;17.260;2022-08-23T07:43:31;8.77;;;2.17;;
52946;SDS011;45776;40.400;17.260;2022-08-23T07:45:57;4.53;;;1.83;;
52946;SDS011;45776;40.400;17.260;2022-08-23T07:48:23;3.50;;;2.28;;
52946;SDS011;45776;40.400;17.260;2022-08-23T07:50:52;2.58;;;2.20;;
52946;SDS011;45776;40.400;17.260;2022-08-23T07:53:19;3.15;;;2.03;;
52946;SDS011;45776;40.400;17.260;2022-08-23T07:55:44;3.00;;;2.15;;
52946;SDS011;45776;40.400;17.260;2022-08-23T07:58:10;2.92;;;1.80;;
52946;SDS011;45776;40.400;17.260;2022-08-23T08:00:37;4.47;;;2.03;;
52946;SDS011;45776;40.400;17.260;2022-08-23T08:03:02;5.35;;;2.10;;
52946;SDS011;45776;40.400;17.260;2022-08-23T08:05:30;4.13;;;2.30;;
52946;SDS011;45776;40.400;17.260;2022-08-23T08:07:57;3.30;;;2.00;;
52946;SDS011;45776;40.400;17.260;2022-08-23T08:10:23;3.50;;;2.00;;
52946;SDS011;45776;40.400;17.260;2022-08-23T08:12:48;4.40;;;1.88;;
52946;SDS011;45776;40.400;17.260;2022-08-23T08:15:14;4.97;;;1.63;;
52946;SDS011;45776;40.400;17.260;2022-08-23T08:17:41;2.03;;;1.50;;
52946;SDS011;45776;40.400;17.260;2022-08-23T08:20:06;3.70;;;1.90;;
52946;SDS011;45776;40.400;17.260;2022-08-23T08:22:32;3.65;;;2.00;;
52946;SDS011;45776;40.400;17.260;2022-08-23T08:24:58;2.42;;;1.70;;
52946;SDS011;45776;40.400;17.260;2022-08-23T08:27:24;4.30;;;2.20;;
52946;SDS011;45776;40.400;17.260;2022-08-23T08:29:49;3.50;;;2.00;;
52946;SDS011;45776;40.400;17.260;2022-08-23T08:32:15;2.92;;;2.03;;
52946;SDS011;45776;40.400;17.260;2022-08-23T08:34:41;6.85;;;2.88;;
52946;SDS011;45776;40.400;17.260;2022-08-23T08:37:06;2.50;;;1.80;;
52946;SDS011;45776;40.400;17.260;2022-08-23T08:39:32;3.30;;;1.98;;
52946;SDS011;45776;40.400;17.260;2022-08-23T08:44:43;3.67;;;1.80;;
52946;SDS011;45776;40.400;17.260;2022-08-23T08:50:02;3.22;;;1.90;;
52946;SDS011;45776;40.400;17.260;2022-08-23T08:52:40;3.53;;;1.67;;
52946;SDS011;45776;40.400;17.260;2022-08-23T08:55:13;2.13;;;1.88;;
52946;SDS011;45776;40.400;17.260;2022-08-23T08:57:44;3.20;;;1.90;;
52946;SDS011;45776;40.400;17.260;2022-08-23T09:00:22;3.42;;;1.90;;
52946;SDS011;45776;40.400;17.260;2022-08-23T09:02:50;3.85;;;1.88;;
52946;SDS011;45776;40.400;17.260;2022-08-23T09:05:20;2.08;;;1.75;;
52946;SDS011;45776;40.400;17.260;2022-08-23T09:18:37;4.25;;;1.70;;
52946;SDS011;45776;40.400;17.260;2022-08-23T09:21:04;2.78;;;1.98;;
52946;SDS011;45776;40.400;17.260;2022-08-23T09:23:33;2.75;;;1.85;;
52946;SDS011;45776;40.400;17.260;2022-08-23T09:26:15;2.67;;;1.90;;
52946;SDS011;45776;40.400;17.260;2022-08-23T09:28:47;2.22;;;1.80;;
52946;SDS011;45776;40.400;17.260;2022-08-23T09:31:36;5.45;;;2.10;;
52946;SDS011;45776;40.400;17.260;2022-08-23T09:34:06;4.97;;;2.40;;
52946;SDS011;45776;40.400;17.260;2022-08-23T09:36:35;3.85;;;1.98;;
52946;SDS011;45776;40.400;17.260;2022-08-23T09:39:06;3.10;;;2.10;;
52946;SDS011;45776;40.400;17.260;2022-08-23T09:41:47;5.85;;;1.90;;
52946;SDS011;45776;40.400;17.260;2022-08-23T09:44:15;3.13;;;1.80;;
52946;SDS011;45776;40.400;17.260;2022-08-23T09:47:13;4.45;;;1.85;;
52946;SDS011;45776;40.400;17.260;2022-08-23T09:49:42;2.97;;;1.90;;
52946;SDS011;45776;40.400;17.260;2022-08-23T09:52:25;3.80;;;1.80;;
52946;SDS011;45776;40.400;17.260;2022-08-23T09:55:02;3.83;;;1.50;;
52946;SDS011;45776;40.400;17.260;2022-08-23T09:57:31;3.58;;;1.92;;
52946;SDS011;45776;40.400;17.260;2022-08-23T10:02:47;3.25;;;1.70;;
52946;SDS011;45776;40.400;17.260;2022-08-23T10:05:27;3.75;;;2.10;;
52946;SDS011;45776;40.400;17.260;2022-08-23T10:08:04;3.47;;;1.60;;
52946;SDS011;45776;40.400;17.260;2022-08-23T10:13:10;3.50;;;1.70;;
52946;SDS011;45776;40.400;17.260;2022-08-23T10:15:46;2.58;;;1.73;;
52946;SDS011;45776;40.400;17.260;2022-08-23T10:21:24;2.72;;;1.40;;
52946;SDS011;45776;40.400;17.260;2022-08-23T10:24:10;3.63;;;1.65;;
52946;SDS011;45776;40.400;17.260;2022-08-23T10:27:01;3.50;;;1.80;;
52946;SDS011;45776;40.400;17.260;2022-08-23T10:30:21;3.05;;;2.30;;
52946;SDS011;45776;40.400;17.260;2022-08-23T10:41:07;3.15;;;2.10;;
52946;SDS011;45776;40.400;17.260;2022-08-23T10:44:21;3.15;;;1.90;;
52946;SDS011;45776;40.400;17.260;2022-08-23T10:46:24;3.03;;;1.77;;
52946;SDS011;45776;40.400;17.260;2022-08-23T10:48:54;2.25;;;1.90;;
52946;SDS011;45776;40.400;17.260;2022-08-23T10:56:58;2.03;;;1.58;;
52946;SDS011;45776;40.400;17.260;2022-08-23T10:59:24;2.08;;;1.60;;
52946;SDS011;45776;40.400;17.260;2022-08-23T11:07:26;3.92;;;1.80;;
52946;SDS011;45776;40.400;17.260;2022-08-23T11:09:56;3.70;;;1.85;;
52946;SDS011;45776;40.400;17.260;2022-08-23T11:12:35;2.22;;;1.75;;
52946;SDS011;45776;40.400;17.260;2022-08-23T11:20:53;2.80;;;1.90;;
52946;SDS011;45776;40.400;17.260;2022-08-23T11:31:26;2.08;;;1.50;;
52946;SDS011;45776;40.400;17.260;2022-08-23T11:34:06;2.60;;;1.70;;
52946;SDS011;45776;40.400;17.260;2022-08-23T11:42:32;3.63;;;1.60;;
52946;SDS011;45776;40.400;17.260;2022-08-23T12:01:40;2.10;;;1.45;;
52946;SDS011;45776;40.400;17.260;2022-08-23T12:04:11;2.80;;;1.63;;
52946;SDS011;45776;40.400;17.260;2022-08-23T12:06:55;2.08;;;1.35;;
52946;SDS011;45776;40.400;17.260;2022-08-23T12:16:59;2.35;;;1.40;;
52946;SDS011;45776;40.400;17.260;2022-08-23T12:19:33;1.85;;;1.30;;
52946;SDS011;45776;40.400;17.260;2022-08-23T12:22:09;6.05;;;1.50;;
52946;SDS011;45776;40.400;17.260;2022-08-23T12:24:43;2.60;;;1.60;;
52946;SDS011;45776;40.400;17.260;2022-08-23T12:27:20;1.92;;;1.33;;
52946;SDS011;45776;40.400;17.260;2022-08-23T12:32:44;4.65;;;1.50;;
52946;SDS011;45776;40.400;17.260;2022-08-23T12:38:05;2.80;;;1.48;;
52946;SDS011;45776;40.400;17.260;2022-08-23T12:40:40;3.22;;;1.45;;
52946;SDS011;45776;40.400;17.260;2022-08-23T12:45:41;2.58;;;1.50;;
52946;SDS011;45776;40.400;17.260;2022-08-23T12:48:15;1.30;;;1.20;;
52946;SDS011;45776;40.400;17.260;2022-08-23T12:50:44;3.47;;;1.83;;
52946;SDS011;45776;40.400;17.260;2022-08-23T12:53:25;1.98;;;1.30;;
52946;SDS011;45776;40.400;17.260;2022-08-23T12:56:00;2.72;;;1.38;;
52946;SDS011;45776;40.400;17.260;2022-08-23T12:58:30;4.18;;;1.52;;
52946;SDS011;45776;40.400;17.260;2022-08-23T13:01:00;2.55;;;1.30;;
52946;SDS011;45776;40.400;17.260;2022-08-23T13:06:13;3.58;;;1.60;;
52946;SDS011;45776;40.400;17.260;2022-08-23T13:11:40;2.03;;;1.50;;
52946;SDS011;45776;40.400;17.260;2022-08-23T13:14:21;2.42;;;1.17;;
52946;SDS011;45776;40.400;17.260;2022-08-23T13:16:46;2.03;;;1.30;;
52946;SDS011;45776;40.400;17.260;2022-08-23T13:19:17;2.75;;;1.50;;
52946;SDS011;45776;40.400;17.260;2022-08-23T13:38:07;1.48;;;1.30;;
52946;SDS011;45776;40.400;17.260;2022-08-23T13:40:38;2.90;;;1.40;;
52946;SDS011;45776;40.400;17.260;2022-08-23T13:43:06;2.15;;;1.42;;
52946;SDS011;45776;40.400;17.260;2022-08-23T13:45:34;3.47;;;1.40;;
52946;SDS011;45776;40.400;17.260;2022-08-23T13:50:36;3.40;;;1.27;;
52946;SDS011;45776;40.400;17.260;2022-08-23T13:53:03;1.52;;;1.30;;
52946;SDS011;45776;40.400;17.260;2022-08-23T13:55:29;2.05;;;1.50;;
52946;SDS011;45776;40.400;17.260;2022-08-23T13:57:56;3.60;;;1.50;;
52946;SDS011;45776;40.400;17.260;2022-08-23T14:00:23;3.58;;;1.50;;
52946;SDS011;45776;40.400;17.260;2022-08-23T14:02:49;5.63;;;1.73;;
52946;SDS011;45776;40.400;17.260;2022-08-23T14:05:16;3.13;;;1.60;;
52946;SDS011;45776;40.400;17.260;2022-08-23T14:07:45;2.05;;;1.50;;
52946;SDS011;45776;40.400;17.260;2022-08-23T14:10:13;2.78;;;1.50;;
52946;SDS011;45776;40.400;17.260;2022-08-23T14:12:39;2.55;;;1.50;;
52946;SDS011;45776;40.400;17.260;2022-08-23T14:15:09;3.65;;;1.70;;
52946;SDS011;45776;40.400;17.260;2022-08-23T14:17:42;2.47;;;1.48;;
52946;SDS011;45776;40.400;17.260;2022-08-23T14:20:14;2.45;;;1.52;;
52946;SDS011;45776;40.400;17.260;2022-08-23T14:22:40;4.28;;;1.50;;
52946;SDS011;45776;40.400;17.260;2022-08-23T14:25:07;2.58;;;1.40;;
52946;SDS011;45776;40.400;17.260;2022-08-23T14:27:34;2.45;;;1.60;;
52946;SDS011;45776;40.400;17.260;2022-08-23T14:30:00;3.20;;;1.48;;
52946;SDS011;45776;40.400;17.260;2022-08-23T14:32:28;2.28;;;1.55;;
52946;SDS011;45776;40.400;17.260;2022-08-23T14:34:54;2.72;;;1.50;;
52946;SDS011;45776;40.400;17.260;2022-08-23T14:37:19;1.98;;;1.20;;
52946;SDS011;45776;40.400;17.260;2022-08-23T14:39:45;5.28;;;1.58;;
52946;SDS011;45776;40.400;17.260;2022-08-23T14:42:10;1.85;;;1.10;;
52946;SDS011;45776;40.400;17.260;2022-08-23T14:44:41;2.97;;;1.25;;
52946;SDS011;45776;40.400;17.260;2022-08-23T14:47:06;2.55;;;1.17;;
52946;SDS011;45776;40.400;17.260;2022-08-23T14:49:32;2.88;;;1.17;;
52946;SDS011;45776;40.400;17.260;2022-08-23T14:51:57;3.95;;;1.30;;
52946;SDS011;45776;40.400;17.260;2022-08-23T14:54:24;2.28;;;1.35;;
52946;SDS011;45776;40.400;17.260;2022-08-23T14:56:50;2.53;;;1.20;;
52946;SDS011;45776;40.400;17.260;2022-08-23T14:59:16;2.15;;;1.20;;
52946;SDS011;45776;40.400;17.260;2022-08-23T15:01:41;4.32;;;1.30;;
52946;SDS011;45776;40.400;17.260;2022-08-23T15:04:07;3.53;;;1.15;;
52946;SDS011;45776;40.400;17.260;2022-08-23T15:06:33;2.35;;;1.25;;
52946;SDS011;45776;40.400;17.260;2022-08-23T15:08:59;6.90;;;1.58;;
52946;SDS011;45776;40.400;17.260;2022-08-23T15:11:25;1.65;;;1.17;;
52946;SDS011;45776;40.400;17.260;2022-08-23T15:13:50;2.08;;;1.00;;
52946;SDS011;45776;40.400;17.260;2022-08-23T15:16:16;2.05;;;1.13;;
52946;SDS011;45776;40.400;17.260;2022-08-23T15:18:46;2.13;;;1.00;;
52946;SDS011;45776;40.400;17.260;2022-08-23T15:21:14;2.87;;;1.00;;
52946;SDS011;45776;40.400;17.260;2022-08-23T15:23:40;1.60;;;0.85;;
52946;SDS011;45776;40.400;17.260;2022-08-23T15:26:07;1.52;;;1.00;;
52946;SDS011;45776;40.400;17.260;2022-08-23T15:28:37;2.20;;;0.85;;
52946;SDS011;45776;40.400;17.260;2022-08-23T15:31:03;1.25;;;0.75;;
52946;SDS011;45776;40.400;17.260;2022-08-23T15:33:29;1.70;;;1.00;;
52946;SDS011;45776;40.400;17.260;2022-08-23T15:35:56;1.58;;;1.00;;
52946;SDS011;45776;40.400;17.260;2022-08-23T15:38:23;1.42;;;1.00;;
52946;SDS011;45776;40.400;17.260;2022-08-23T15:40:50;13.10;;;1.70;;
52946;SDS011;45776;40.400;17.260;2022-08-23T15:43:17;3.15;;;1.00;;
52946;SDS011;45776;40.400;17.260;2022-08-23T15:45:44;3.75;;;1.05;;
52946;SDS011;45776;40.400;17.260;2022-08-23T15:48:12;5.32;;;1.42;;
52946;SDS011;45776;40.400;17.260;2022-08-23T15:50:44;3.97;;;1.30;;
52946;SDS011;45776;40.400;17.260;2022-08-23T15:53:11;3.63;;;1.58;;
52946;SDS011;45776;40.400;17.260;2022-08-23T15:55:37;1.55;;;1.10;;
52946;SDS011;45776;40.400;17.260;2022-08-23T15:58:04;3.80;;;1.00;;
52946;SDS011;45776;40.400;17.260;2022-08-23T16:00:30;1.80;;;1.05;;
52946;SDS011;45776;40.400;17.260;2022-08-23T16:02:55;2.65;;;0.90;;
52946;SDS011;45776;40.400;17.260;2022-08-23T16:05:21;2.20;;;0.82;;
52946;SDS011;45776;40.400;17.260;2022-08-23T16:07:47;1.88;;;1.25;;
52946;SDS011;45776;40.400;17.260;2022-08-23T16:10:17;4.22;;;1.17;;
52946;SDS011;45776;40.400;17.260;2022-08-23T16:12:42;5.15;;;1.00;;
52946;SDS011;45776;40.400;17.260;2022-08-23T16:15:08;2.03;;;0.98;;
52946;SDS011;45776;40.400;17.260;2022-08-23T16:17:36;0.80;;;0.75;;
52946;SDS011;45776;40.400;17.260;2022-08-23T16:20:04;2.45;;;0.40;;
52946;SDS011;45776;40.400;17.260;2022-08-23T16:22:31;0.70;;;0.30;;
52946;SDS011;45776;40.400;17.260;2022-08-23T16:24:57;5.00;;;0.60;;
52946;SDS011;45776;40.400;17.260;2022-08-23T16:27:24;0.70;;;0.40;;
52946;SDS011;45776;40.400;17.260;2022-08-23T16:29:50;4.18;;;0.70;;
52946;SDS011;45776;40.400;17.260;2022-08-23T16:32:16;0.75;;;0.40;;
52946;SDS011;45776;40.400;17.260;2022-08-23T16:34:42;0.85;;;0.65;;
52946;SDS011;45776;40.400;17.260;2022-08-23T16:37:07;0.88;;;0.47;;
52946;SDS011;45776;40.400;17.260;2022-08-23T16:39:33;1.38;;;0.30;;
52946;SDS011;45776;40.400;17.260;2022-08-23T16:42:00;1.45;;;0.32;;
52946;SDS011;45776;40.400;17.260;2022-08-23T16:44:29;1.38;;;0.40;;
52946;SDS011;45776;40.400;17.260;2022-08-23T16:46:55;4.53;;;0.32;;
52946;SDS011;45776;40.400;17.260;2022-08-23T16:49:21;1.55;;;0.40;;
52946;SDS011;45776;40.400;17.260;2022-08-23T16:51:47;0.63;;;0.50;;
52946;SDS011;45776;40.400;17.260;2022-08-23T16:54:13;6.03;;;1.10;;